sensor_id;sensor_type;location;lat;lon;timestamp;pressure;altitude;pressure_sealevel;temperature;humidity
72116;BME280;59991;52.140;5.428;2023-05-01T00:00:10;101882.88;;;10.37;72.73
72116;BME280;59991;52.140;5.428;2023-05-01T00:00:41;101891.84;;;10.38;72.47
72116;BME280;59991;52.140;5.428;2023-05-01T00:01:13;101882.06;;;10.37;72.74
72116;BME280;59991;52.140;5.428;2023-05-01T00:01:44;101892.97;;;10.37;72.55
72116;BME280;59991;52.140;5.428;2023-05-01T00:02:16;101887.88;;;10.35;72.49
72116;BME280;59991;52.140;5.428;2023-05-01T00:02:47;101883.56;;;10.34;72.90
72116;BME280;59991;52.140;5.428;2023-05-01T00:03:19;101883.56;;;10.34;72.91
72116;BME280;59991;52.140;5.428;2023-05-01T00:03:51;101883.91;;;10.33;73.09
72116;BME280;59991;52.140;5.428;2023-05-01T00:04:23;101879.59;;;10.32;73.49
72116;BME280;59991;52.140;5.428;2023-05-01T00:04:54;101883.47;;;10.31;73.11
72116;BME280;59991;52.140;5.428;2023-05-01T00:05:26;101882.66;;;10.30;73.29
72116;BME280;59991;52.140;5.428;2023-05-01T00:05:59;101884.59;;;10.30;73.00
72116;BME280;59991;52.140;5.428;2023-05-01T00:06:31;101879.50;;;10.28;72.94
72116;BME280;59991;52.140;5.428;2023-05-01T00:07:03;101880.97;;;10.26;73.33
72116;BME280;59991;52.140;5.428;2023-05-01T00:07:35;101880.19;;;10.25;73.02
72116;BME280;59991;52.140;5.428;2023-05-01T00:08:06;101879.75;;;10.23;72.98
72116;BME280;59991;52.140;5.428;2023-05-01T00:08:38;101877.34;;;10.22;73.26
72116;BME280;59991;52.140;5.428;2023-05-01T00:09:10;101874.63;;;10.22;72.96
72116;BME280;59991;52.140;5.428;2023-05-01T00:09:41;101879.28;;;10.21;73.27
72116;BME280;59991;52.140;5.428;2023-05-01T00:10:12;101875.34;;;10.19;73.17
72116;BME280;59991;52.140;5.428;2023-05-01T00:10:44;101874.22;;;10.20;73.31
72116;BME280;59991;52.140;5.428;2023-05-01T00:11:17;101869.09;;;10.18;73.17
72116;BME280;59991;52.140;5.428;2023-05-01T00:11:48;101868.28;;;10.18;73.51
72116;BME280;59991;52.140;5.428;2023-05-01T00:12:20;101877.59;;;10.17;73.88
72116;BME280;59991;52.140;5.428;2023-05-01T00:12:51;101874.09;;;10.16;73.81
72116;BME280;59991;52.140;5.428;2023-05-01T00:13:23;101872.50;;;10.15;73.78
72116;BME280;59991;52.140;5.428;2023-05-01T00:13:54;101874.44;;;10.15;73.48
72116;BME280;59991;52.140;5.428;2023-05-01T00:14:27;101868.97;;;10.15;73.60
72116;BME280;59991;52.140;5.428;2023-05-01T00:14:58;101869.31;;;10.13;73.95
72116;BME280;59991;52.140;5.428;2023-05-01T00:15:31;101870.47;;;10.12;73.93
72116;BME280;59991;52.140;5.428;2023-05-01T00:16:10;101866.16;;;10.11;73.63
72116;BME280;59991;52.140;5.428;2023-05-01T00:16:42;101867.28;;;10.10;74.10
72116;BME280;59991;52.140;5.428;2023-05-01T00:17:13;101864.91;;;10.09;74.04
72116;BME280;59991;52.140;5.428;2023-05-01T00:17:45;101869.56;;;10.08;73.72
72116;BME280;59991;52.140;5.428;2023-05-01T00:18:17;101868.00;;;10.07;73.95
72116;BME280;59991;52.140;5.428;2023-05-01T00:18:48;101862.09;;;10.05;73.91
72116;BME280;59991;52.140;5.428;2023-05-01T00:19:20;101860.50;;;10.04;73.50
72116;BME280;59991;52.140;5.428;2023-05-01T00:19:52;101865.94;;;10.04;74.06
72116;BME280;59991;52.140;5.428;2023-05-01T00:20:28;101864.72;;;10.01;74.04
72116;BME280;59991;52.140;5.428;2023-05-01T00:20:59;101856.91;;;10.00;73.72
72116;BME280;59991;52.140;5.428;2023-05-01T00:21:31;101856.47;;;9.98;73.59
72116;BME280;59991;52.140;5.428;2023-05-01T00:22:02;101854.88;;;9.97;73.69
72116;BME280;59991;52.140;5.428;2023-05-01T00:22:34;101854.09;;;9.96;74.22
72116;BME280;59991;52.140;5.428;2023-05-01T00:23:05;101853.28;;;9.96;74.39
72116;BME280;59991;52.140;5.428;2023-05-01T00:23:39;101857.16;;;9.95;74.47
72116;BME280;59991;52.140;5.428;2023-05-01T00:24:11;101858.28;;;9.94;74.38
72116;BME280;59991;52.140;5.428;2023-05-01T00:24:42;101854.00;;;9.93;74.31
72116;BME280;59991;52.140;5.428;2023-05-01T00:25:14;101853.19;;;9.92;74.65
72116;BME280;59991;52.140;5.428;2023-05-01T00:25:46;101850.81;;;9.91;74.52
72116;BME280;59991;52.140;5.428;2023-05-01T00:26:17;101853.53;;;9.91;74.49
72116;BME280;59991;52.140;5.428;2023-05-01T00:26:49;101848.78;;;9.88;74.65
72116;BME280;59991;52.140;5.428;2023-05-01T00:27:20;101847.19;;;9.87;74.57
72116;BME280;59991;52.140;5.428;2023-05-01T00:27:51;101849.47;;;9.85;74.29
72116;BME280;59991;52.140;5.428;2023-05-01T00:28:23;101845.16;;;9.84;74.66
72116;BME280;59991;52.140;5.428;2023-05-01T00:28:55;101850.94;;;9.82;74.25
72116;BME280;59991;52.140;5.428;2023-05-01T00:29:26;101846.28;;;9.83;74.37
72116;BME280;59991;52.140;5.428;2023-05-01T00:29:58;101851.31;;;9.81;75.17
72116;BME280;59991;52.140;5.428;2023-05-01T00:30:31;101845.44;;;9.79;75.05
72116;BME280;59991;52.140;5.428;2023-05-01T00:31:03;101852.47;;;9.80;74.71
72116;BME280;59991;52.140;5.428;2023-05-01T00:31:34;101845.44;;;9.79;75.19
72116;BME280;59991;52.140;5.428;2023-05-01T00:32:06;101840.31;;;9.77;75.16
72116;BME280;59991;52.140;5.428;2023-05-01T00:32:38;101839.88;;;9.75;74.98
72116;BME280;59991;52.140;5.428;2023-05-01T00:33:10;101842.59;;;9.75;75.01
72116;BME280;59991;52.140;5.428;2023-05-01T00:33:42;101843.75;;;9.74;75.19
72116;BME280;59991;52.140;5.428;2023-05-01T00:34:13;101837.50;;;9.74;75.28
72116;BME280;59991;52.140;5.428;2023-05-01T00:34:45;101839.78;;;9.72;74.84
72116;BME280;59991;52.140;5.428;2023-05-01T00:35:18;101840.91;;;9.70;74.74
72116;BME280;59991;52.140;5.428;2023-05-01T00:35:50;101840.13;;;9.70;75.02
72116;BME280;59991;52.140;5.428;2023-05-01T00:36:22;101839.31;;;9.69;75.13
72116;BME280;59991;52.140;5.428;2023-05-01T00:36:54;101838.88;;;9.67;75.08
72116;BME280;59991;52.140;5.428;2023-05-01T00:37:25;101853.97;;;9.65;75.51
72116;BME280;59991;52.140;5.428;2023-05-01T00:37:57;101837.56;;;9.61;75.45
72116;BME280;59991;52.140;5.428;2023-05-01T00:38:28;101851.19;;;9.61;75.32
72116;BME280;59991;52.140;5.428;2023-05-01T00:39:00;101833.59;;;9.59;75.81
72116;BME280;59991;52.140;5.428;2023-05-01T00:39:31;101838.59;;;9.57;75.48
72116;BME280;59991;52.140;5.428;2023-05-01T00:40:03;101838.59;;;9.57;76.03
72116;BME280;59991;52.140;5.428;2023-05-01T00:40:45;101837.78;;;9.56;75.54
72116;BME280;59991;52.140;5.428;2023-05-01T00:41:16;101837.00;;;9.56;75.29
72116;BME280;59991;52.140;5.428;2023-05-01T00:41:48;101838.94;;;9.55;75.45
72116;BME280;59991;52.140;5.428;2023-05-01T00:42:19;101833.84;;;9.54;75.81
72116;BME280;59991;52.140;5.428;2023-05-01T00:42:51;101829.19;;;9.54;75.85
72116;BME280;59991;52.140;5.428;2023-05-01T00:43:22;101827.25;;;9.55;75.99
72116;BME280;59991;52.140;5.428;2023-05-01T00:43:54;101834.16;;;9.52;75.66
72116;BME280;59991;52.140;5.428;2023-05-01T00:44:25;101832.25;;;9.53;75.68
72116;BME280;59991;52.140;5.428;2023-05-01T00:44:57;101834.63;;;9.54;75.99
72116;BME280;59991;52.140;5.428;2023-05-01T00:45:28;101830.66;;;9.52;76.32
72116;BME280;59991;52.140;5.428;2023-05-01T00:46:00;101821.69;;;9.51;76.20
72116;BME280;59991;52.140;5.428;2023-05-01T00:46:33;101829.06;;;9.51;76.25
72116;BME280;59991;52.140;5.428;2023-05-01T00:47:04;101831.34;;;9.49;75.95
72116;BME280;59991;52.140;5.428;2023-05-01T00:47:36;101828.28;;;9.50;75.94
72116;BME280;59991;52.140;5.428;2023-05-01T00:48:08;101825.91;;;9.49;75.94
72116;BME280;59991;52.140;5.428;2023-05-01T00:48:41;101825.09;;;9.48;76.27
72116;BME280;59991;52.140;5.428;2023-05-01T00:49:12;101814.56;;;9.47;75.95
72116;BME280;59991;52.140;5.428;2023-05-01T00:49:44;101818.06;;;9.47;76.63
72116;BME280;59991;52.140;5.428;2023-05-01T00:50:16;101815.34;;;9.47;76.04
72116;BME280;59991;52.140;5.428;2023-05-01T00:50:48;101822.72;;;9.47;75.91
72116;BME280;59991;52.140;5.428;2023-05-01T00:51:20;101823.53;;;9.47;76.14
72116;BME280;59991;52.140;5.428;2023-05-01T00:51:52;101818.41;;;9.46;76.14
72116;BME280;59991;52.140;5.428;2023-05-01T00:52:24;101818.41;;;9.46;76.21
72116;BME280;59991;52.140;5.428;2023-05-01T00:52:56;101821.94;;;9.46;76.46
72116;BME280;59991;52.140;5.428;2023-05-01T00:53:28;101809.81;;;9.44;76.53
72116;BME280;59991;52.140;5.428;2023-05-01T00:53:59;101810.59;;;9.44;76.77
72116;BME280;59991;52.140;5.428;2023-05-01T00:54:31;101812.53;;;9.44;76.77
72116;BME280;59991;52.140;5.428;2023-05-01T00:55:03;101804.72;;;9.42;76.84
72116;BME280;59991;52.140;5.428;2023-05-01T00:55:35;101810.16;;;9.42;76.95
72116;BME280;59991;52.140;5.428;2023-05-01T01:17:04;101785.22;;;9.00;77.13
72116;BME280;59991;52.140;5.428;2023-05-01T01:18:09;101778.19;;;8.99;77.34
72116;BME280;59991;52.140;5.428;2023-05-01T01:19:57;101781.69;;;8.99;77.59
72116;BME280;59991;52.140;5.428;2023-05-01T01:20:42;101783.63;;;8.99;77.27
72116;BME280;59991;52.140;5.428;2023-05-01T01:21:34;101776.59;;;8.98;77.38
72116;BME280;59991;52.140;5.428;2023-05-01T01:22:12;101781.25;;;8.97;77.28
72116;BME280;59991;52.140;5.428;2023-05-01T01:22:50;101771.50;;;8.96;77.92
72116;BME280;59991;52.140;5.428;2023-05-01T01:23:35;101775.34;;;8.95;77.48
72116;BME280;59991;52.140;5.428;2023-05-01T01:26:12;101765.16;;;8.92;77.57
72116;BME280;59991;52.140;5.428;2023-05-01T01:27:18;101767.09;;;8.92;77.67
72116;BME280;59991;52.140;5.428;2023-05-01T01:29:07;101767.44;;;8.90;77.39
72116;BME280;59991;52.140;5.428;2023-05-01T01:30:11;101764.25;;;8.88;77.60
72116;BME280;59991;52.140;5.428;2023-05-01T01:31:10;101761.44;;;8.85;77.71
72116;BME280;59991;52.140;5.428;2023-05-01T01:32:26;101759.06;;;8.83;77.80
72116;BME280;59991;52.140;5.428;2023-05-01T01:34:08;101759.28;;;8.78;78.07
72116;BME280;59991;52.140;5.428;2023-05-01T01:34:46;101763.94;;;8.78;78.17
72116;BME280;59991;52.140;5.428;2023-05-01T01:35:24;101756.13;;;8.76;78.23
72116;BME280;59991;52.140;5.428;2023-05-01T01:35:57;101756.13;;;8.76;77.98
72116;BME280;59991;52.140;5.428;2023-05-01T01:37:11;101751.81;;;8.75;78.40
72116;BME280;59991;52.140;5.428;2023-05-01T01:37:50;101759.19;;;8.75;78.09
72116;BME280;59991;52.140;5.428;2023-05-01T01:38:31;101756.81;;;8.73;78.57
72116;BME280;59991;52.140;5.428;2023-05-01T01:40:11;101748.19;;;8.71;78.71
72116;BME280;59991;52.140;5.428;2023-05-01T01:40:52;101754.75;;;8.70;79.14
72116;BME280;59991;52.140;5.428;2023-05-01T01:41:30;101746.59;;;8.70;78.83
72116;BME280;59991;52.140;5.428;2023-05-01T01:42:08;101748.53;;;8.70;78.81
72116;BME280;59991;52.140;5.428;2023-05-01T01:42:44;101753.97;;;8.70;78.90
72116;BME280;59991;52.140;5.428;2023-05-01T01:43:17;101746.16;;;8.68;79.27
72116;BME280;59991;52.140;5.428;2023-05-01T01:43:58;101744.56;;;8.67;79.36
72116;BME280;59991;52.140;5.428;2023-05-01T01:44:51;101745.69;;;8.66;78.84
72116;BME280;59991;52.140;5.428;2023-05-01T01:45:33;101745.69;;;8.66;79.01
72116;BME280;59991;52.140;5.428;2023-05-01T01:46:07;101744.56;;;8.67;79.11
72116;BME280;59991;52.140;5.428;2023-05-01T01:46:41;101741.84;;;8.67;79.34
72116;BME280;59991;52.140;5.428;2023-05-01T01:47:14;101744.13;;;8.65;78.95
72116;BME280;59991;52.140;5.428;2023-05-01T01:47:47;101737.13;;;8.64;79.34
72116;BME280;59991;52.140;5.428;2023-05-01T01:48:24;101745.28;;;8.64;79.38
72116;BME280;59991;52.140;5.428;2023-05-01T01:48:57;101731.69;;;8.64;79.54
72116;BME280;59991;52.140;5.428;2023-05-01T01:49:30;101733.94;;;8.62;79.22
72116;BME280;59991;52.140;5.428;2023-05-01T01:50:05;101733.94;;;8.62;79.70
72116;BME280;59991;52.140;5.428;2023-05-01T01:50:39;101732.34;;;8.61;79.48
72116;BME280;59991;52.140;5.428;2023-05-01T01:51:15;101732.34;;;8.61;79.35
72116;BME280;59991;52.140;5.428;2023-05-01T01:51:49;101731.56;;;8.60;79.89
72116;BME280;59991;52.140;5.428;2023-05-01T01:52:23;101728.84;;;8.60;79.77
72116;BME280;59991;52.140;5.428;2023-05-01T01:52:59;101725.66;;;8.58;79.21
72116;BME280;59991;52.140;5.428;2023-05-01T01:53:32;101725.66;;;8.58;79.20
72116;BME280;59991;52.140;5.428;2023-05-01T01:54:05;101728.84;;;8.60;79.56
72116;BME280;59991;52.140;5.428;2023-05-01T01:54:41;101723.41;;;8.60;79.57
72116;BME280;59991;52.140;5.428;2023-05-01T01:55:14;101721.47;;;8.61;79.38
72116;BME280;59991;52.140;5.428;2023-05-01T01:55:49;101728.84;;;8.60;80.06
72116;BME280;59991;52.140;5.428;2023-05-01T01:56:23;101723.75;;;8.59;79.72
72116;BME280;59991;52.140;5.428;2023-05-01T01:56:58;101727.59;;;8.58;79.27
72116;BME280;59991;52.140;5.428;2023-05-01T01:57:30;101720.56;;;8.57;80.19
72116;BME280;59991;52.140;5.428;2023-05-01T01:58:04;101724.44;;;8.56;79.76
72116;BME280;59991;52.140;5.428;2023-05-01T01:58:38;101719.78;;;8.56;79.75
72116;BME280;59991;52.140;5.428;2023-05-01T01:59:10;101723.63;;;8.55;79.66
72116;BME280;59991;52.140;5.428;2023-05-01T01:59:45;101717.06;;;8.56;79.50
72116;BME280;59991;52.140;5.428;2023-05-01T02:00:18;101717.84;;;8.57;79.89
72116;BME280;59991;52.140;5.428;2023-05-01T02:00:52;101720.56;;;8.57;79.32
72116;BME280;59991;52.140;5.428;2023-05-01T02:01:24;101722.50;;;8.56;80.22
72116;BME280;59991;52.140;5.428;2023-05-01T02:01:57;101710.84;;;8.56;80.14
72116;BME280;59991;52.140;5.428;2023-05-01T02:02:29;101716.28;;;8.56;80.30
72116;BME280;59991;52.140;5.428;2023-05-01T02:03:02;101711.97;;;8.55;79.96
72116;BME280;59991;52.140;5.428;2023-05-01T02:03:35;101719.00;;;8.56;80.47
72116;BME280;59991;52.140;5.428;2023-05-01T02:04:10;101710.84;;;8.56;80.42
72116;BME280;59991;52.140;5.428;2023-05-01T02:04:44;101714.69;;;8.55;79.93
72116;BME280;59991;52.140;5.428;2023-05-01T02:05:16;101707.31;;;8.55;79.73
72116;BME280;59991;52.140;5.428;2023-05-01T02:05:51;101710.84;;;8.56;80.42
72116;BME280;59991;52.140;5.428;2023-05-01T02:06:24;101707.31;;;8.55;79.95
72116;BME280;59991;52.140;5.428;2023-05-01T02:06:57;101714.69;;;8.55;79.99
72116;BME280;59991;52.140;5.428;2023-05-01T02:07:30;101707.66;;;8.54;80.29
72116;BME280;59991;52.140;5.428;2023-05-01T02:08:04;101706.53;;;8.55;80.21
72116;BME280;59991;52.140;5.428;2023-05-01T02:08:36;101700.31;;;8.54;80.39
72116;BME280;59991;52.140;5.428;2023-05-01T02:09:08;101699.97;;;8.56;80.47
72116;BME280;59991;52.140;5.428;2023-05-01T02:09:42;101704.59;;;8.55;80.16
72116;BME280;59991;52.140;5.428;2023-05-01T02:10:15;101703.47;;;8.56;80.64
72116;BME280;59991;52.140;5.428;2023-05-01T02:10:49;101696.09;;;8.57;80.59
72116;BME280;59991;52.140;5.428;2023-05-01T02:11:21;101698.03;;;8.56;80.46
72116;BME280;59991;52.140;5.428;2023-05-01T02:11:54;101705.06;;;8.57;80.51
72116;BME280;59991;52.140;5.428;2023-05-01T02:12:27;101703.47;;;8.56;80.53
72116;BME280;59991;52.140;5.428;2023-05-01T02:13:00;101699.97;;;8.56;80.14
72116;BME280;59991;52.140;5.428;2023-05-01T02:13:35;101692.94;;;8.55;80.57
72116;BME280;59991;52.140;5.428;2023-05-01T02:14:09;101693.28;;;8.53;80.43
72116;BME280;59991;52.140;5.428;2023-05-01T02:14:41;101695.19;;;8.53;80.13
72116;BME280;59991;52.140;5.428;2023-05-01T02:15:16;101700.97;;;8.51;80.40
72116;BME280;59991;52.140;5.428;2023-05-01T02:15:49;101705.63;;;8.51;79.82
72116;BME280;59991;52.140;5.428;2023-05-01T02:16:22;101698.59;;;8.50;79.94
72116;BME280;59991;52.140;5.428;2023-05-01T02:16:56;101692.38;;;8.49;79.82
72116;BME280;59991;52.140;5.428;2023-05-01T02:17:29;101692.38;;;8.49;79.72
72116;BME280;59991;52.140;5.428;2023-05-01T02:18:02;101690.44;;;8.50;80.45
72116;BME280;59991;52.140;5.428;2023-05-01T02:18:35;101687.72;;;8.50;80.71
72116;BME280;59991;52.140;5.428;2023-05-01T02:19:08;101693.16;;;8.50;79.95
72116;BME280;59991;52.140;5.428;2023-05-01T02:19:40;101693.16;;;8.50;80.22
72116;BME280;59991;52.140;5.428;2023-05-01T02:20:14;101692.38;;;8.49;80.68
72116;BME280;59991;52.140;5.428;2023-05-01T02:20:46;101700.88;;;8.48;80.65
72116;BME280;59991;52.140;5.428;2023-05-01T02:21:18;101686.84;;;8.46;80.10
72116;BME280;59991;52.140;5.428;2023-05-01T02:21:52;101689.56;;;8.46;80.27
72116;BME280;59991;52.140;5.428;2023-05-01T02:22:25;101690.69;;;8.45;79.83
72116;BME280;59991;52.140;5.428;2023-05-01T02:22:58;101688.78;;;8.45;80.71
72116;BME280;59991;52.140;5.428;2023-05-01T02:23:30;101695.34;;;8.44;80.28
72116;BME280;59991;52.140;5.428;2023-05-01T02:24:04;101687.53;;;8.43;80.10
72116;BME280;59991;52.140;5.428;2023-05-01T02:24:37;101692.63;;;8.44;79.61
72116;BME280;59991;52.140;5.428;2023-05-01T02:25:12;101687.53;;;8.43;79.87
72116;BME280;59991;52.140;5.428;2023-05-01T02:25:44;101687.53;;;8.43;79.90
72116;BME280;59991;52.140;5.428;2023-05-01T02:26:17;101687.53;;;8.43;80.43
72116;BME280;59991;52.140;5.428;2023-05-01T02:26:56;101684.81;;;8.43;79.97
72116;BME280;59991;52.140;5.428;2023-05-01T02:27:35;101690.25;;;8.43;80.25
72116;BME280;59991;52.140;5.428;2023-05-01T02:28:12;101682.09;;;8.43;80.47
72116;BME280;59991;52.140;5.428;2023-05-01T02:28:44;101684.81;;;8.43;80.37
72116;BME280;59991;52.140;5.428;2023-05-01T02:29:16;101690.25;;;8.43;80.03
72116;BME280;59991;52.140;5.428;2023-05-01T02:29:47;101685.16;;;8.41;80.93
72116;BME280;59991;52.140;5.428;2023-05-01T02:30:19;101680.50;;;8.42;80.31
72116;BME280;59991;52.140;5.428;2023-05-01T02:30:50;101683.22;;;8.42;80.60
72116;BME280;59991;52.140;5.428;2023-05-01T02:31:23;101679.72;;;8.41;80.70
72116;BME280;59991;52.140;5.428;2023-05-01T02:31:55;101679.72;;;8.41;80.85
72116;BME280;59991;52.140;5.428;2023-05-01T02:32:26;101678.13;;;8.40;80.74
72116;BME280;59991;52.140;5.428;2023-05-01T02:32:58;101684.34;;;8.41;81.09
72116;BME280;59991;52.140;5.428;2023-05-01T02:33:30;101677.34;;;8.40;80.79
72116;BME280;59991;52.140;5.428;2023-05-01T02:34:01;101680.84;;;8.40;80.77
72116;BME280;59991;52.140;5.428;2023-05-01T02:34:34;101682.78;;;8.40;81.01
72116;BME280;59991;52.140;5.428;2023-05-01T02:35:06;101676.53;;;8.39;80.68
72116;BME280;59991;52.140;5.428;2023-05-01T02:35:41;101681.19;;;8.39;80.66
72116;BME280;59991;52.140;5.428;2023-05-01T02:36:14;101681.19;;;8.39;80.65
72116;BME280;59991;52.140;5.428;2023-05-01T02:36:45;101676.53;;;8.39;81.19
72116;BME280;59991;52.140;5.428;2023-05-01T02:37:17;101678.81;;;8.37;81.47
72116;BME280;59991;52.140;5.428;2023-05-01T02:37:49;101674.16;;;8.38;80.91
72116;BME280;59991;52.140;5.428;2023-05-01T02:38:21;101678.00;;;8.37;81.03
72116;BME280;59991;52.140;5.428;2023-05-01T02:38:53;101675.28;;;8.37;81.13
72116;BME280;59991;52.140;5.428;2023-05-01T02:39:25;101678.00;;;8.37;80.90
72116;BME280;59991;52.140;5.428;2023-05-01T02:39:57;101682.66;;;8.36;81.20
72116;BME280;59991;52.140;5.428;2023-05-01T02:40:29;101678.00;;;8.37;80.99
72116;BME280;59991;52.140;5.428;2023-05-01T02:41:02;101678.81;;;8.37;80.90
72116;BME280;59991;52.140;5.428;2023-05-01T02:41:34;101668.72;;;8.38;80.86
72116;BME280;59991;52.140;5.428;2023-05-01T02:42:07;101672.56;;;8.37;80.75
72116;BME280;59991;52.140;5.428;2023-05-01T02:42:42;101676.09;;;8.37;81.10
72116;BME280;59991;52.140;5.428;2023-05-01T02:43:17;101667.94;;;8.37;81.50
72116;BME280;59991;52.140;5.428;2023-05-01T02:43:55;101676.88;;;8.38;81.53
72116;BME280;59991;52.140;5.428;2023-05-01T02:44:33;101676.88;;;8.38;81.56
72116;BME280;59991;52.140;5.428;2023-05-01T02:45:08;101667.94;;;8.37;81.34
72116;BME280;59991;52.140;5.428;2023-05-01T02:45:41;101668.28;;;8.36;81.22
72116;BME280;59991;52.140;5.428;2023-05-01T02:46:15;101665.56;;;8.36;81.40
72116;BME280;59991;52.140;5.428;2023-05-01T02:46:49;101672.13;;;8.35;81.09
72116;BME280;59991;52.140;5.428;2023-05-01T02:47:23;101673.72;;;8.36;80.85
72116;BME280;59991;52.140;5.428;2023-05-01T02:47:57;101665.91;;;8.34;80.90
72116;BME280;59991;52.140;5.428;2023-05-01T02:48:30;101669.41;;;8.35;81.18
72116;BME280;59991;52.140;5.428;2023-05-01T02:49:03;101668.63;;;8.34;81.24
72116;BME280;59991;52.140;5.428;2023-05-01T02:49:36;101671.34;;;8.34;81.18
72116;BME280;59991;52.140;5.428;2023-05-01T02:50:08;101674.84;;;8.35;81.18
72116;BME280;59991;52.140;5.428;2023-05-01T02:50:43;101670.53;;;8.34;81.21
72116;BME280;59991;52.140;5.428;2023-05-01T02:51:16;101669.75;;;8.33;80.99
72116;BME280;59991;52.140;5.428;2023-05-01T02:51:48;101670.53;;;8.34;81.21
72116;BME280;59991;52.140;5.428;2023-05-01T02:52:21;101667.03;;;8.33;81.16
72116;BME280;59991;52.140;5.428;2023-05-01T02:52:53;101673.25;;;8.34;81.70
72116;BME280;59991;52.140;5.428;2023-05-01T02:53:25;101661.59;;;8.33;81.62
72116;BME280;59991;52.140;5.428;2023-05-01T02:53:57;101668.63;;;8.34;81.30
72116;BME280;59991;52.140;5.428;2023-05-01T02:54:30;101662.38;;;8.34;81.28
72116;BME280;59991;52.140;5.428;2023-05-01T02:55:01;101659.66;;;8.34;80.97
72116;BME280;59991;52.140;5.428;2023-05-01T02:55:34;101663.19;;;8.34;81.52
72116;BME280;59991;52.140;5.428;2023-05-01T02:56:06;101661.25;;;8.35;81.15
72116;BME280;59991;52.140;5.428;2023-05-01T02:56:38;101661.25;;;8.35;80.67
72116;BME280;59991;52.140;5.428;2023-05-01T02:57:11;101662.38;;;8.34;80.85
72116;BME280;59991;52.140;5.428;2023-05-01T02:57:42;101656.63;;;8.35;80.87
72116;BME280;59991;52.140;5.428;2023-05-01T02:58:15;101662.84;;;8.36;81.37
72116;BME280;59991;52.140;5.428;2023-05-01T02:58:47;101659.00;;;8.37;81.18
72116;BME280;59991;52.140;5.428;2023-05-01T02:59:20;101659.00;;;8.37;81.27
72116;BME280;59991;52.140;5.428;2023-05-01T02:59:51;101651.63;;;8.37;81.38
72116;BME280;59991;52.140;5.428;2023-05-01T03:00:24;101654.34;;;8.37;81.55
72116;BME280;59991;52.140;5.428;2023-05-01T03:00:56;101656.28;;;8.37;81.27
72116;BME280;59991;52.140;5.428;2023-05-01T03:01:27;101653.22;;;8.38;81.34
72116;BME280;59991;52.140;5.428;2023-05-01T03:02:00;101655.16;;;8.38;81.46
72116;BME280;59991;52.140;5.428;2023-05-01T03:02:32;101653.22;;;8.38;81.95
72116;BME280;59991;52.140;5.428;2023-05-01T03:03:03;101651.63;;;8.37;81.63
72116;BME280;59991;52.140;5.428;2023-05-01T03:03:35;101657.06;;;8.37;81.56
72116;BME280;59991;52.140;5.428;2023-05-01T03:04:07;101652.44;;;8.38;81.70
72116;BME280;59991;52.140;5.428;2023-05-01T03:04:39;101651.63;;;8.37;81.58
72116;BME280;59991;52.140;5.428;2023-05-01T03:05:11;101654.81;;;8.39;81.64
72116;BME280;59991;52.140;5.428;2023-05-01T03:05:42;101652.88;;;8.40;81.70
72116;BME280;59991;52.140;5.428;2023-05-01T03:06:14;101647.44;;;8.40;81.62
72116;BME280;59991;52.140;5.428;2023-05-01T03:06:45;101655.59;;;8.40;81.80
72116;BME280;59991;52.140;5.428;2023-05-01T03:07:17;101646.66;;;8.39;81.57
72116;BME280;59991;52.140;5.428;2023-05-01T03:07:48;101650.50;;;8.38;81.77
72116;BME280;59991;52.140;5.428;2023-05-01T03:08:21;101647.00;;;8.38;81.97
72116;BME280;59991;52.140;5.428;2023-05-01T03:08:52;101649.72;;;8.38;81.78
72116;BME280;59991;52.140;5.428;2023-05-01T03:09:24;101638.38;;;8.36;81.69
72116;BME280;59991;52.140;5.428;2023-05-01T03:09:56;101649.72;;;8.38;81.37
72116;BME280;59991;52.140;5.428;2023-05-01T03:10:27;101650.84;;;8.37;81.46
72116;BME280;59991;52.140;5.428;2023-05-01T03:11:03;101638.84;;;8.38;82.09
72116;BME280;59991;52.140;5.428;2023-05-01T03:11:35;101641.56;;;8.38;81.75
72116;BME280;59991;52.140;5.428;2023-05-01T03:12:06;101645.06;;;8.38;82.02
72116;BME280;59991;52.140;5.428;2023-05-01T03:12:38;101644.28;;;8.38;81.11
72116;BME280;59991;52.140;5.428;2023-05-01T03:13:09;101642.34;;;8.38;81.73
72116;BME280;59991;52.140;5.428;2023-05-01T03:13:41;101643.94;;;8.39;81.83
72116;BME280;59991;52.140;5.428;2023-05-01T03:14:13;101642.34;;;8.38;81.96
72116;BME280;59991;52.140;5.428;2023-05-01T03:14:45;101639.63;;;8.38;81.78
72116;BME280;59991;52.140;5.428;2023-05-01T03:15:16;101636.13;;;8.38;81.70
72116;BME280;59991;52.140;5.428;2023-05-01T03:15:48;101642.34;;;8.38;81.50
72116;BME280;59991;52.140;5.428;2023-05-01T03:16:20;101639.28;;;8.40;82.12
72116;BME280;59991;52.140;5.428;2023-05-01T03:16:52;101633.84;;;8.40;82.04
72116;BME280;59991;52.140;5.428;2023-05-01T03:17:23;101640.88;;;8.41;82.00
72116;BME280;59991;52.140;5.428;2023-05-01T03:17:55;101635.09;;;8.42;81.72
72116;BME280;59991;52.140;5.428;2023-05-01T03:18:26;101634.31;;;8.42;81.90
72116;BME280;59991;52.140;5.428;2023-05-01T03:18:58;101633.16;;;8.43;81.67
72116;BME280;59991;52.140;5.428;2023-05-01T03:19:29;101628.88;;;8.42;82.00
72116;BME280;59991;52.140;5.428;2023-05-01T03:20:01;101633.16;;;8.43;81.41
72116;BME280;59991;52.140;5.428;2023-05-01T03:20:32;101634.75;;;8.44;81.37
72116;BME280;59991;52.140;5.428;2023-05-01T03:21:04;101629.31;;;8.44;82.17
72116;BME280;59991;52.140;5.428;2023-05-01T03:21:35;101630.91;;;8.45;81.83
72116;BME280;59991;52.140;5.428;2023-05-01T03:22:07;101624.69;;;8.44;81.92
72116;BME280;59991;52.140;5.428;2023-05-01T03:22:38;101637.94;;;8.46;81.85
72116;BME280;59991;52.140;5.428;2023-05-01T03:23:10;101628.63;;;8.47;81.70
72116;BME280;59991;52.140;5.428;2023-05-01T03:23:41;101625.88;;;8.47;81.24
72116;BME280;59991;52.140;5.428;2023-05-01T03:24:13;101626.34;;;8.49;81.47
72116;BME280;59991;52.140;5.428;2023-05-01T03:24:44;101623.63;;;8.49;81.70
72116;BME280;59991;52.140;5.428;2023-05-01T03:25:17;101622.50;;;8.50;81.69
72116;BME280;59991;52.140;5.428;2023-05-01T03:25:49;101631.44;;;8.50;81.61